Flight Track Log - Related Links

Times and Time Zones

All times are in EDT time to prevent confusion due to time zone crossing. See the SKW5517 flight status page for this flight to view local times or setup timezone preferences in your user account.

Time Position Orientation Groundspeed Altitude Reporting Facility
EDT Latitude Longitude Course Direction KTS MPH feet Rate Location/Type
Thu 09:24:42 PM 39.8333 -104.7833 252° West 209 241 7,000  Level Denver TRACON
Thu 09:25:42 PM 39.8167 -104.8667 255° West 274 315 9,000 2,276 Climbing Denver TRACON
Thu 09:26:00 PM 39.7123 -105.0966 247° West  Level FlightAware Approximate
Thu 09:26:09 PM 39.7983 -104.9089 241° Southwest 273 314 10,300  Level Denver Center
Thu 09:27:00 PM 39.6652 -105.2393 252° West  Level FlightAware Approximate
Thu 09:27:11 PM 39.7706 -105.0111 251° West 301 346 12,000  Level Denver Center
Thu 09:28:00 PM 39.6240 -105.3848 248° West  Level FlightAware Approximate
Thu 09:28:13 PM 39.7281 -105.1317 245° Southwest 338 389 14,000  Level Denver Center
Thu 09:29:00 PM 39.5754 -105.5246 218° Southwest  Level FlightAware Approximate
Thu 09:29:15 PM 39.6853 -105.2517 245° Southwest 365 420 15,800  Level Denver Center
Thu 09:30:00 PM 39.5298 -105.6641 252° West  Level FlightAware Approximate
Thu 09:30:17 PM 39.6403 -105.3769 245° Southwest 381 438 17,800  Level Denver Center
Thu 09:31:19 PM 39.5900 -105.5136 245° Southwest 390 449 19,400 1,645 Climbing Denver Center
Thu 09:32:21 PM 39.5442 -105.6431 245° Southwest 402 463 21,200 1,548 Climbing Denver Center
Thu 09:33:23 PM 39.5036 -105.7886 250° West 402 463 22,600 1,324 Climbing Denver Center
Thu 09:34:37 PM 39.4656 -105.9339 251° West 401 461 24,200 1,358 Climbing Denver Center
Thu 09:35:40 PM 39.4178 -106.1011 250° West 419 482 25,700 1,296 Climbing Denver Center
Thu 09:36:42 PM 39.3758 -106.2472 250° West 422 486 26,900 1,016 Climbing Denver Center
Thu 09:37:44 PM 39.3369 -106.3892 251° West 433 498 27,800 1,016 Climbing Denver Center
Thu 09:38:46 PM 39.2894 -106.5550 250° West 441 507 29,000 919 Climbing Denver Center
Thu 09:39:48 PM 39.2469 -106.6981 249° West 446 513 29,700 1,452 Climbing Denver Center
Thu 09:40:50 PM 39.1747 -106.8506 239° Southwest 442 509 32,000 1,597 Climbing Denver Center
Thu 09:41:52 PM 39.1100 -106.9761 236° Southwest 438 504 33,000 1,258 Climbing Denver Center
Thu 09:42:54 PM 39.0344 -107.1208 236° Southwest 434 499 34,600 1,355 Climbing Denver Center
Thu 09:43:56 PM 38.9719 -107.2403 236° Southwest 425 489 35,800 968 Climbing Denver Center
Thu 09:44:58 PM 38.8983 -107.3797 236° Southwest 420 483 36,600 667 Climbing Denver Center
Thu 09:46:11 PM 38.8400 -107.4950 237° Southwest 406 467 37,300 568 Climbing Denver Center
Thu 09:47:26 PM 38.7481 -107.6706 236° Southwest 411 473 38,000 307 Climbing Denver Center
Thu 09:48:28 PM 38.6744 -107.8075 235° Southwest 414 476 38,000  Level Denver Center
Thu 09:49:30 PM 38.6108 -107.9292 236° Southwest 425 489 38,000  Level Denver Center
Thu 09:50:32 PM 38.5467 -108.0497 236° Southwest 427 491 38,000  Level Denver Center
Thu 09:51:34 PM 38.4706 -108.1919 236° Southwest 432 497 38,000  Level Denver Center
Thu 09:52:36 PM 38.4069 -108.3117 236° Southwest 428 493 38,000  Level Denver Center
Thu 09:53:38 PM 38.3306 -108.4517 235° Southwest 430 495 38,000  Level Denver Center
Thu 09:54:40 PM 38.2661 -108.5717 236° Southwest 429 494 38,000  Level Denver Center
Thu 09:55:54 PM 38.1897 -108.7136 236° Southwest 433 498 38,000  Level Denver Center
Thu 09:56:57 PM 38.1139 -108.8528 235° Southwest 429 494 38,000  Level Denver Center
Thu 09:57:59 PM 38.0372 -108.9919 235° Southwest 427 491 38,000  Level Denver Center
Thu 09:59:01 PM 37.9711 -109.1078 234° Southwest 425 489 38,000  Level Denver Center
Thu 10:00:03 PM 37.8947 -109.2464 235° Southwest 429 494 38,000  Level Denver Center
Thu 10:01:05 PM 37.8292 -109.3661 235° Southwest 432 497 38,000  Level Denver Center
Thu 10:02:07 PM 37.7511 -109.5047 235° Southwest 433 498 38,000  Level Denver Center
Thu 10:03:09 PM 37.6861 -109.6228 235° Southwest 430 495 38,000  Level Denver Center
Thu 10:04:11 PM 37.6089 -109.7603 235° Southwest 430 495 38,000  Level Denver Center
Thu 10:05:24 PM 37.5428 -109.8792 235° Southwest 432 497 38,000  Level Denver Center
Thu 10:06:27 PM 37.4547 -110.0350 235° Southwest 430 495 38,000  Level Denver Center
Thu 10:07:29 PM 37.3878 -110.1517 234° Southwest 430 495 38,000  Level Denver Center
Thu 10:08:30 PM 37.3189 -110.2725 234° Southwest 427 491 38,000  Level Denver Center
Thu 10:09:32 PM 37.2486 -110.3931 234° Southwest 429 494 38,000  Level Denver Center
Thu 10:10:34 PM 37.1650 -110.5397 234° Southwest 430 495 38,000  Level Denver Center
Thu 10:11:36 PM 37.0953 -110.6614 234° Southwest 430 495 38,000  Level Denver Center
Thu 10:12:38 PM 37.0258 -110.7817 234° Southwest 427 491 38,000  Level Denver Center
Thu 10:13:39 PM 36.9556 -110.9019 234° Southwest 428 493 38,000  Level Denver Center
Thu 10:14:41 PM 36.8850 -111.0225 234° Southwest 428 493 38,000  Level Denver Center
Thu 10:15:43 PM 36.8161 -111.1422 234° Southwest 426 490 38,000  Level Denver Center
Thu 10:16:44 PM 36.7450 -111.2614 233° Southwest 425 489 38,000  Level Denver Center
Thu 10:17:46 PM 36.6764 -111.3803 234° Southwest 424 488 38,000  Level Denver Center
Thu 10:18:48 PM 36.5911 -111.5228 233° Southwest 426 490 38,000  Level Denver Center
Thu 10:19:49 PM 36.5203 -111.6428 234° Southwest 428 493 38,000  Level Denver Center
Thu 10:20:51 PM 36.4492 -111.7606 233° Southwest 426 490 38,000  Level Denver Center
Thu 10:21:53 PM 36.3794 -111.8781 234° Southwest 424 488 38,000  Level Denver Center
Thu 10:22:53 PM 36.3228 -111.9697 233° Southwest 419 482 38,000  Level Los Angeles Center
Thu 10:23:55 PM 36.2392 -112.1114 234° Southwest 421 484 38,000  Level Los Angeles Center
Thu 10:24:57 PM 36.1672 -112.2286 233° Southwest 424 488 38,000  Level Los Angeles Center
Thu 10:25:59 PM 36.0869 -112.3636 234° Southwest 412 474 38,000  Level Los Angeles Center
Thu 10:27:01 PM 36.0156 -112.4792 233° Southwest 418 481 38,000  Level Los Angeles Center
Thu 10:28:02 PM 35.9456 -112.5925 233° Southwest 420 483 38,000  Level Los Angeles Center
Thu 10:29:04 PM 35.8747 -112.7089 233° Southwest 425 489 38,000  Level Los Angeles Center
Thu 10:30:06 PM 35.8028 -112.8267 233° Southwest 422 486 38,000  Level Los Angeles Center
Thu 10:31:08 PM 35.7350 -112.9381 233° Southwest 423 487 38,000  Level Los Angeles Center
Thu 10:32:10 PM 35.6531 -113.0703 233° Southwest 423 487 38,000  Level Los Angeles Center
Thu 10:33:11 PM 35.5814 -113.1861 233° Southwest 425 489 38,000  Level Los Angeles Center
Thu 10:34:13 PM 35.5094 -113.3006 232° Southwest 422 486 38,000  Level Los Angeles Center
Thu 10:35:15 PM 35.4381 -113.4156 233° Southwest 428 493 38,000  Level Los Angeles Center
Thu 10:36:17 PM 35.3669 -113.5292 233° Southwest 425 489 38,000  Level Los Angeles Center
Thu 10:37:18 PM 35.2811 -113.6658 232° Southwest 426 490 38,000 -976 Level Los Angeles Center
Thu 10:38:20 PM 35.2081 -113.7817 232° Southwest 431 496 36,000 -2,177 Descending Los Angeles Center
Thu 10:39:22 PM 35.1333 -113.9011 233° Southwest 442 509 33,500 -2,244 Descending Los Angeles Center
Thu 10:40:23 PM 35.0664 -114.0053 232° Southwest 452 520 31,400 -1,694 Descending Los Angeles Center
Thu 10:41:26 PM 34.9750 -114.1486 232° Southwest 443 510 30,000 -677 Descending Los Angeles Center
Thu 10:42:27 PM 34.9008 -114.2636 232° Southwest 432 497 30,000  Level Los Angeles Center
Thu 10:43:29 PM 34.8256 -114.3822 232° Southwest 439 505 30,000  Level Los Angeles Center
Thu 10:44:30 PM 34.7644 -114.4753 231° Southwest 440 506 30,000  Level Los Angeles Center
Thu 10:45:32 PM 34.6706 -114.6181 231° Southwest 447 514 30,000 -286 Level Los Angeles Center
Thu 10:46:36 PM 34.5794 -114.7536 231° Southwest 447 514 29,400 -1,258 Descending Los Angeles Center
Thu 10:47:36 PM 34.5019 -114.8703 231° Southwest 446 513 27,400 -1,869 Descending Los Angeles Center
Thu 10:48:38 PM 34.4236 -114.9892 231° Southwest 450 518 25,600 -1,854 Descending Los Angeles Center
Thu 10:49:39 PM 34.3456 -115.1119 232° Southwest 461 531 23,600 -1,317 Descending Los Angeles Center
Thu 10:50:41 PM 34.2800 -115.2375 238° Southwest 447 514 22,900 -1,694 Descending Los Angeles Center
Thu 10:51:43 PM 34.2006 -115.3850 237° Southwest 438 504 20,100 -2,585 Descending Los Angeles Center
Thu 10:52:44 PM 34.1386 -115.5011 237° Southwest 417 480 17,600 -2,488 Descending Los Angeles Center
Thu 10:53:46 PM 34.0767 -115.6156 237° Southwest 410 472 15,000 -2,468 Descending Los Angeles Center
Thu 10:54:48 PM 34.0175 -115.7289 238° Southwest 405 466 12,500 -1,951 Descending Los Angeles Center
Thu 10:55:49 PM 33.9642 -115.8397 240° Southwest 392 451 11,000 -927 Descending Los Angeles Center
Thu 10:56:51 PM 33.9381 -115.9589 255° West 375 432 10,600 -537 Descending Los Angeles Center
Thu 10:57:52 PM 33.9189 -116.0464 255° West 359 413 9,900 -1,415 Descending Los Angeles Center
Thu 10:58:54 PM 33.8917 -116.1800 256° West 319 367 7,700 -1,452 Descending Los Angeles Center
Thu 10:59:56 PM 33.8697 -116.2717 254° West 302 348 6,900 -774 Descending Los Angeles Center
Thu 11:00:58 PM 33.8247 -116.3339 229° Southwest 268 308 6,100 -439 Descending Los Angeles Center
Thu 11:01:59 PM 33.7914 -116.3914 235° Southwest 259 298 6,000 -98 Descending Los Angeles Center

Login

Don't have an account? Register now (free) for customized features, flight alerts, and more!